sensor_id;sensor_type;location;lat;lon;timestamp;P1;durP1;ratioP1;P2;durP2;ratioP2
61960;SDS011;47923;42.506;24.192;2023-05-06T00:01:57;9.57;;;5.40;;
61960;SDS011;47923;42.506;24.192;2023-05-06T00:04:22;9.00;;;5.28;;
61960;SDS011;47923;42.506;24.192;2023-05-06T00:06:48;8.23;;;4.63;;
61960;SDS011;47923;42.506;24.192;2023-05-06T00:09:14;9.20;;;5.30;;
61960;SDS011;47923;42.506;24.192;2023-05-06T00:11:39;8.32;;;4.47;;
61960;SDS011;47923;42.506;24.192;2023-05-06T00:14:05;7.43;;;4.15;;
61960;SDS011;47923;42.506;24.192;2023-05-06T00:16:31;10.75;;;3.97;;
61960;SDS011;47923;42.506;24.192;2023-05-06T00:18:56;7.35;;;4.00;;
61960;SDS011;47923;42.506;24.192;2023-05-06T00:21:21;7.93;;;3.83;;
61960;SDS011;47923;42.506;24.192;2023-05-06T00:23:47;7.70;;;4.55;;
61960;SDS011;47923;42.506;24.192;2023-05-06T00:26:12;7.32;;;4.00;;
61960;SDS011;47923;42.506;24.192;2023-05-06T00:28:38;8.88;;;4.47;;
61960;SDS011;47923;42.506;24.192;2023-05-06T00:31:03;8.77;;;5.05;;
61960;SDS011;47923;42.506;24.192;2023-05-06T00:33:29;7.38;;;4.15;;
61960;SDS011;47923;42.506;24.192;2023-05-06T00:35:55;9.52;;;4.45;;
61960;SDS011;47923;42.506;24.192;2023-05-06T00:38:20;8.85;;;4.75;;
61960;SDS011;47923;42.506;24.192;2023-05-06T00:40:46;8.05;;;4.57;;
61960;SDS011;47923;42.506;24.192;2023-05-06T00:43:11;7.45;;;4.57;;
61960;SDS011;47923;42.506;24.192;2023-05-06T00:45:37;9.23;;;4.78;;
61960;SDS011;47923;42.506;24.192;2023-05-06T00:48:04;11.20;;;4.65;;
61960;SDS011;47923;42.506;24.192;2023-05-06T00:50:31;8.18;;;4.45;;
61960;SDS011;47923;42.506;24.192;2023-05-06T00:52:58;6.32;;;3.63;;
61960;SDS011;47923;42.506;24.192;2023-05-06T00:55:26;7.38;;;4.10;;
61960;SDS011;47923;42.506;24.192;2023-05-06T00:57:52;7.70;;;4.40;;
61960;SDS011;47923;42.506;24.192;2023-05-06T01:00:18;7.20;;;4.18;;
61960;SDS011;47923;42.506;24.192;2023-05-06T01:02:45;7.70;;;4.55;;
61960;SDS011;47923;42.506;24.192;2023-05-06T01:05:11;7.97;;;4.60;;
61960;SDS011;47923;42.506;24.192;2023-05-06T01:15:29;8.82;;;4.68;;
61960;SDS011;47923;42.506;24.192;2023-05-06T01:17:58;8.98;;;4.18;;
61960;SDS011;47923;42.506;24.192;2023-05-06T01:20:28;8.30;;;4.65;;
61960;SDS011;47923;42.506;24.192;2023-05-06T01:22:54;9.02;;;4.97;;
61960;SDS011;47923;42.506;24.192;2023-05-06T01:25:21;9.02;;;4.95;;
61960;SDS011;47923;42.506;24.192;2023-05-06T01:27:47;7.78;;;4.78;;
61960;SDS011;47923;42.506;24.192;2023-05-06T01:30:13;5.68;;;3.17;;
61960;SDS011;47923;42.506;24.192;2023-05-06T01:38:28;6.88;;;3.58;;
61960;SDS011;47923;42.506;24.192;2023-05-06T01:40:58;7.47;;;4.25;;
61960;SDS011;47923;42.506;24.192;2023-05-06T01:43:26;9.57;;;5.53;;
61960;SDS011;47923;42.506;24.192;2023-05-06T01:45:54;10.48;;;6.32;;
61960;SDS011;47923;42.506;24.192;2023-05-06T01:48:23;10.13;;;6.20;;
61960;SDS011;47923;42.506;24.192;2023-05-06T01:50:52;9.70;;;6.00;;
61960;SDS011;47923;42.506;24.192;2023-05-06T01:53:17;10.00;;;6.03;;
61960;SDS011;47923;42.506;24.192;2023-05-06T01:55:43;12.48;;;6.43;;
61960;SDS011;47923;42.506;24.192;2023-05-06T01:58:08;13.70;;;7.00;;
61960;SDS011;47923;42.506;24.192;2023-05-06T02:00:36;10.52;;;6.18;;
61960;SDS011;47923;42.506;24.192;2023-05-06T02:03:02;12.98;;;5.93;;
61960;SDS011;47923;42.506;24.192;2023-05-06T02:05:28;52.55;;;10.40;;
61960;SDS011;47923;42.506;24.192;2023-05-06T02:07:53;15.02;;;5.75;;
61960;SDS011;47923;42.506;24.192;2023-05-06T02:10:19;10.18;;;5.70;;
61960;SDS011;47923;42.506;24.192;2023-05-06T02:12:44;9.40;;;4.70;;
61960;SDS011;47923;42.506;24.192;2023-05-06T02:15:10;9.00;;;4.90;;
61960;SDS011;47923;42.506;24.192;2023-05-06T02:17:36;7.47;;;4.38;;
61960;SDS011;47923;42.506;24.192;2023-05-06T02:20:02;8.73;;;4.30;;
61960;SDS011;47923;42.506;24.192;2023-05-06T02:22:28;9.18;;;4.90;;
61960;SDS011;47923;42.506;24.192;2023-05-06T02:24:54;7.10;;;4.05;;
61960;SDS011;47923;42.506;24.192;2023-05-06T02:27:19;9.32;;;4.88;;
61960;SDS011;47923;42.506;24.192;2023-05-06T02:29:45;7.93;;;4.88;;
61960;SDS011;47923;42.506;24.192;2023-05-06T02:32:11;11.13;;;4.68;;
61960;SDS011;47923;42.506;24.192;2023-05-06T02:34:36;10.25;;;4.75;;
61960;SDS011;47923;42.506;24.192;2023-05-06T02:37:02;9.20;;;5.32;;
61960;SDS011;47923;42.506;24.192;2023-05-06T02:39:27;10.30;;;4.82;;
61960;SDS011;47923;42.506;24.192;2023-05-06T02:41:53;8.23;;;4.43;;
61960;SDS011;47923;42.506;24.192;2023-05-06T02:44:18;10.10;;;4.85;;
61960;SDS011;47923;42.506;24.192;2023-05-06T02:46:44;8.40;;;4.85;;
61960;SDS011;47923;42.506;24.192;2023-05-06T02:49:09;12.18;;;6.85;;
61960;SDS011;47923;42.506;24.192;2023-05-06T02:51:35;11.73;;;6.88;;
61960;SDS011;47923;42.506;24.192;2023-05-06T02:54:00;13.35;;;7.15;;
61960;SDS011;47923;42.506;24.192;2023-05-06T02:56:26;13.25;;;9.43;;
61960;SDS011;47923;42.506;24.192;2023-05-06T02:58:52;16.10;;;10.27;;
61960;SDS011;47923;42.506;24.192;2023-05-06T03:01:17;15.60;;;11.32;;
61960;SDS011;47923;42.506;24.192;2023-05-06T03:03:43;15.20;;;10.85;;
61960;SDS011;47923;42.506;24.192;2023-05-06T03:06:08;16.65;;;9.57;;
61960;SDS011;47923;42.506;24.192;2023-05-06T03:08:34;14.75;;;9.90;;
61960;SDS011;47923;42.506;24.192;2023-05-06T03:10:59;13.57;;;9.05;;
61960;SDS011;47923;42.506;24.192;2023-05-06T03:13:25;16.52;;;10.60;;
61960;SDS011;47923;42.506;24.192;2023-05-06T03:15:51;17.90;;;10.98;;
61960;SDS011;47923;42.506;24.192;2023-05-06T03:18:20;18.02;;;12.52;;
61960;SDS011;47923;42.506;24.192;2023-05-06T03:20:49;21.10;;;13.50;;
61960;SDS011;47923;42.506;24.192;2023-05-06T03:23:15;28.67;;;17.67;;
61960;SDS011;47923;42.506;24.192;2023-05-06T03:25:40;22.25;;;15.07;;
61960;SDS011;47923;42.506;24.192;2023-05-06T03:28:05;22.58;;;15.85;;
61960;SDS011;47923;42.506;24.192;2023-05-06T03:30:31;16.27;;;9.77;;
61960;SDS011;47923;42.506;24.192;2023-05-06T03:32:59;14.13;;;9.75;;
61960;SDS011;47923;42.506;24.192;2023-05-06T03:35:25;11.10;;;7.07;;
61960;SDS011;47923;42.506;24.192;2023-05-06T03:37:51;13.48;;;7.72;;
61960;SDS011;47923;42.506;24.192;2023-05-06T03:40:16;10.02;;;6.53;;
61960;SDS011;47923;42.506;24.192;2023-05-06T03:42:42;9.73;;;5.72;;
61960;SDS011;47923;42.506;24.192;2023-05-06T03:45:10;11.32;;;7.82;;
61960;SDS011;47923;42.506;24.192;2023-05-06T03:47:35;14.90;;;9.98;;
61960;SDS011;47923;42.506;24.192;2023-05-06T03:50:01;12.38;;;7.32;;
61960;SDS011;47923;42.506;24.192;2023-05-06T03:52:26;10.80;;;6.55;;
61960;SDS011;47923;42.506;24.192;2023-05-06T03:54:52;16.52;;;9.00;;
61960;SDS011;47923;42.506;24.192;2023-05-06T03:57:18;13.05;;;8.05;;
61960;SDS011;47923;42.506;24.192;2023-05-06T03:59:43;13.10;;;8.30;;
61960;SDS011;47923;42.506;24.192;2023-05-06T04:02:08;12.80;;;7.28;;
61960;SDS011;47923;42.506;24.192;2023-05-06T04:04:34;9.85;;;5.07;;
61960;SDS011;47923;42.506;24.192;2023-05-06T04:06:59;5.90;;;3.20;;
61960;SDS011;47923;42.506;24.192;2023-05-06T04:09:25;7.18;;;3.22;;
61960;SDS011;47923;42.506;24.192;2023-05-06T04:11:51;7.13;;;4.07;;
61960;SDS011;47923;42.506;24.192;2023-05-06T04:14:16;8.05;;;4.32;;
61960;SDS011;47923;42.506;24.192;2023-05-06T04:16:42;6.85;;;3.95;;
61960;SDS011;47923;42.506;24.192;2023-05-06T04:19:07;12.15;;;4.55;;
61960;SDS011;47923;42.506;24.192;2023-05-06T04:21:33;7.80;;;4.72;;
61960;SDS011;47923;42.506;24.192;2023-05-06T04:24:01;7.15;;;4.07;;
61960;SDS011;47923;42.506;24.192;2023-05-06T04:26:27;17.40;;;10.95;;
61960;SDS011;47923;42.506;24.192;2023-05-06T04:28:55;53.22;;;38.10;;
61960;SDS011;47923;42.506;24.192;2023-05-06T04:31:21;34.45;;;25.65;;
61960;SDS011;47923;42.506;24.192;2023-05-06T04:33:47;34.65;;;23.10;;
61960;SDS011;47923;42.506;24.192;2023-05-06T04:36:13;26.27;;;17.77;;
61960;SDS011;47923;42.506;24.192;2023-05-06T04:38:38;20.20;;;13.77;;
61960;SDS011;47923;42.506;24.192;2023-05-06T04:41:04;21.15;;;15.50;;
61960;SDS011;47923;42.506;24.192;2023-05-06T04:43:30;20.95;;;15.00;;
61960;SDS011;47923;42.506;24.192;2023-05-06T04:45:55;17.35;;;12.75;;
61960;SDS011;47923;42.506;24.192;2023-05-06T04:48:21;17.95;;;12.70;;
61960;SDS011;47923;42.506;24.192;2023-05-06T04:50:47;18.48;;;16.52;;
61960;SDS011;47923;42.506;24.192;2023-05-06T04:53:13;15.95;;;11.70;;
61960;SDS011;47923;42.506;24.192;2023-05-06T04:55:39;15.77;;;12.27;;
61960;SDS011;47923;42.506;24.192;2023-05-06T04:58:04;26.75;;;22.02;;
61960;SDS011;47923;42.506;24.192;2023-05-06T05:00:30;16.33;;;13.32;;
61960;SDS011;47923;42.506;24.192;2023-05-06T05:02:55;18.02;;;13.77;;
61960;SDS011;47923;42.506;24.192;2023-05-06T05:05:22;44.15;;;38.65;;
61960;SDS011;47923;42.506;24.192;2023-05-06T05:07:47;39.78;;;31.42;;
61960;SDS011;47923;42.506;24.192;2023-05-06T05:10:13;27.23;;;20.27;;
61960;SDS011;47923;42.506;24.192;2023-05-06T05:12:38;26.25;;;20.65;;
61960;SDS011;47923;42.506;24.192;2023-05-06T05:15:04;24.08;;;17.70;;
61960;SDS011;47923;42.506;24.192;2023-05-06T05:17:30;23.73;;;17.95;;
61960;SDS011;47923;42.506;24.192;2023-05-06T05:19:56;23.38;;;17.38;;
61960;SDS011;47923;42.506;24.192;2023-05-06T05:22:24;16.35;;;12.82;;
61960;SDS011;47923;42.506;24.192;2023-05-06T05:24:50;15.95;;;11.43;;
61960;SDS011;47923;42.506;24.192;2023-05-06T05:27:15;16.00;;;12.48;;
61960;SDS011;47923;42.506;24.192;2023-05-06T05:29:41;13.82;;;10.43;;
61960;SDS011;47923;42.506;24.192;2023-05-06T05:32:06;12.70;;;8.35;;
61960;SDS011;47923;42.506;24.192;2023-05-06T05:34:32;9.68;;;7.68;;
61960;SDS011;47923;42.506;24.192;2023-05-06T05:36:57;25.42;;;22.10;;
61960;SDS011;47923;42.506;24.192;2023-05-06T05:39:23;10.40;;;8.13;;
61960;SDS011;47923;42.506;24.192;2023-05-06T05:41:48;16.50;;;14.80;;
61960;SDS011;47923;42.506;24.192;2023-05-06T05:44:14;16.77;;;9.68;;
61960;SDS011;47923;42.506;24.192;2023-05-06T05:46:39;12.60;;;9.55;;
61960;SDS011;47923;42.506;24.192;2023-05-06T05:49:05;11.65;;;8.98;;
61960;SDS011;47923;42.506;24.192;2023-05-06T05:51:31;13.05;;;9.40;;
61960;SDS011;47923;42.506;24.192;2023-05-06T05:53:57;13.05;;;9.25;;
61960;SDS011;47923;42.506;24.192;2023-05-06T05:56:22;15.48;;;10.82;;
61960;SDS011;47923;42.506;24.192;2023-05-06T05:58:48;17.08;;;12.27;;
61960;SDS011;47923;42.506;24.192;2023-05-06T06:01:13;12.75;;;8.85;;
61960;SDS011;47923;42.506;24.192;2023-05-06T06:03:40;13.10;;;8.30;;
61960;SDS011;47923;42.506;24.192;2023-05-06T06:06:06;10.30;;;7.72;;
61960;SDS011;47923;42.506;24.192;2023-05-06T06:08:32;8.20;;;4.03;;
61960;SDS011;47923;42.506;24.192;2023-05-06T06:10:57;8.57;;;3.90;;
61960;SDS011;47923;42.506;24.192;2023-05-06T06:13:23;8.88;;;4.15;;
61960;SDS011;47923;42.506;24.192;2023-05-06T06:15:49;6.57;;;3.70;;
61960;SDS011;47923;42.506;24.192;2023-05-06T06:18:14;10.25;;;3.47;;
61960;SDS011;47923;42.506;24.192;2023-05-06T06:20:40;4.35;;;2.95;;
61960;SDS011;47923;42.506;24.192;2023-05-06T06:23:05;5.28;;;2.72;;
61960;SDS011;47923;42.506;24.192;2023-05-06T06:25:31;8.57;;;2.78;;
61960;SDS011;47923;42.506;24.192;2023-05-06T06:27:56;5.05;;;2.80;;
61960;SDS011;47923;42.506;24.192;2023-05-06T06:30:22;7.72;;;3.80;;
61960;SDS011;47923;42.506;24.192;2023-05-06T06:32:50;6.53;;;3.08;;
61960;SDS011;47923;42.506;24.192;2023-05-06T06:35:16;8.43;;;3.47;;
61960;SDS011;47923;42.506;24.192;2023-05-06T06:37:43;5.75;;;2.88;;
61960;SDS011;47923;42.506;24.192;2023-05-06T06:40:11;5.70;;;2.80;;
61960;SDS011;47923;42.506;24.192;2023-05-06T06:42:37;7.03;;;3.20;;
61960;SDS011;47923;42.506;24.192;2023-05-06T06:45:03;6.22;;;3.17;;
61960;SDS011;47923;42.506;24.192;2023-05-06T06:47:29;6.15;;;3.10;;
61960;SDS011;47923;42.506;24.192;2023-05-06T06:49:54;6.85;;;3.08;;
61960;SDS011;47923;42.506;24.192;2023-05-06T06:52:20;6.75;;;3.40;;
61960;SDS011;47923;42.506;24.192;2023-05-06T06:54:45;6.57;;;3.05;;
61960;SDS011;47923;42.506;24.192;2023-05-06T06:57:11;8.13;;;2.75;;
61960;SDS011;47923;42.506;24.192;2023-05-06T06:59:36;5.43;;;2.20;;
61960;SDS011;47923;42.506;24.192;2023-05-06T07:02:02;10.27;;;7.28;;
61960;SDS011;47923;42.506;24.192;2023-05-06T07:04:27;5.60;;;2.30;;
61960;SDS011;47923;42.506;24.192;2023-05-06T07:06:53;8.10;;;4.03;;
61960;SDS011;47923;42.506;24.192;2023-05-06T07:09:18;6.50;;;2.83;;
61960;SDS011;47923;42.506;24.192;2023-05-06T07:11:44;5.65;;;2.30;;
61960;SDS011;47923;42.506;24.192;2023-05-06T07:14:10;12.90;;;3.60;;
61960;SDS011;47923;42.506;24.192;2023-05-06T07:16:36;6.80;;;2.90;;
61960;SDS011;47923;42.506;24.192;2023-05-06T07:19:02;8.73;;;3.22;;
61960;SDS011;47923;42.506;24.192;2023-05-06T07:21:27;9.32;;;2.80;;
61960;SDS011;47923;42.506;24.192;2023-05-06T07:23:56;5.47;;;3.10;;
61960;SDS011;47923;42.506;24.192;2023-05-06T07:26:22;7.30;;;3.25;;
61960;SDS011;47923;42.506;24.192;2023-05-06T07:28:48;4.95;;;2.70;;
61960;SDS011;47923;42.506;24.192;2023-05-06T07:31:13;4.88;;;2.70;;
61960;SDS011;47923;42.506;24.192;2023-05-06T07:33:40;6.28;;;3.38;;
61960;SDS011;47923;42.506;24.192;2023-05-06T07:36:07;5.32;;;2.70;;
61960;SDS011;47923;42.506;24.192;2023-05-06T07:38:32;6.25;;;2.90;;
61960;SDS011;47923;42.506;24.192;2023-05-06T07:40:58;8.90;;;3.42;;
61960;SDS011;47923;42.506;24.192;2023-05-06T07:43:23;10.57;;;4.50;;
61960;SDS011;47923;42.506;24.192;2023-05-06T07:45:49;6.50;;;3.00;;
61960;SDS011;47923;42.506;24.192;2023-05-06T07:48:14;5.85;;;2.70;;
61960;SDS011;47923;42.506;24.192;2023-05-06T07:50:40;7.80;;;3.00;;
61960;SDS011;47923;42.506;24.192;2023-05-06T07:53:05;6.03;;;3.05;;
61960;SDS011;47923;42.506;24.192;2023-05-06T07:55:31;5.13;;;2.90;;
61960;SDS011;47923;42.506;24.192;2023-05-06T07:57:56;8.40;;;2.85;;
61960;SDS011;47923;42.506;24.192;2023-05-06T08:00:22;6.53;;;2.88;;
61960;SDS011;47923;42.506;24.192;2023-05-06T08:02:47;7.43;;;3.17;;
61960;SDS011;47923;42.506;24.192;2023-05-06T08:05:13;5.55;;;3.05;;
61960;SDS011;47923;42.506;24.192;2023-05-06T08:07:39;5.72;;;2.72;;
61960;SDS011;47923;42.506;24.192;2023-05-06T08:10:06;8.07;;;4.20;;
61960;SDS011;47923;42.506;24.192;2023-05-06T08:12:33;8.02;;;3.35;;
61960;SDS011;47923;42.506;24.192;2023-05-06T08:14:59;6.75;;;3.30;;
61960;SDS011;47923;42.506;24.192;2023-05-06T08:17:25;6.97;;;3.42;;
61960;SDS011;47923;42.506;24.192;2023-05-06T08:19:51;8.02;;;4.00;;
61960;SDS011;47923;42.506;24.192;2023-05-06T08:22:16;8.25;;;4.65;;
61960;SDS011;47923;42.506;24.192;2023-05-06T08:24:42;8.18;;;3.75;;
61960;SDS011;47923;42.506;24.192;2023-05-06T08:27:07;7.20;;;4.25;;
61960;SDS011;47923;42.506;24.192;2023-05-06T08:29:33;8.02;;;3.20;;
61960;SDS011;47923;42.506;24.192;2023-05-06T08:31:59;10.35;;;4.38;;
61960;SDS011;47923;42.506;24.192;2023-05-06T08:34:24;7.25;;;3.20;;
61960;SDS011;47923;42.506;24.192;2023-05-06T08:36:50;9.32;;;5.00;;
61960;SDS011;47923;42.506;24.192;2023-05-06T08:39:16;7.22;;;3.75;;
61960;SDS011;47923;42.506;24.192;2023-05-06T08:41:44;8.60;;;4.13;;
61960;SDS011;47923;42.506;24.192;2023-05-06T08:44:13;8.63;;;4.57;;
61960;SDS011;47923;42.506;24.192;2023-05-06T08:46:39;8.20;;;3.60;;
61960;SDS011;47923;42.506;24.192;2023-05-06T08:49:05;5.93;;;3.05;;
61960;SDS011;47923;42.506;24.192;2023-05-06T08:51:30;6.60;;;3.55;;
61960;SDS011;47923;42.506;24.192;2023-05-06T08:54:00;7.10;;;3.90;;
61960;SDS011;47923;42.506;24.192;2023-05-06T08:56:28;11.23;;;4.72;;
61960;SDS011;47923;42.506;24.192;2023-05-06T08:58:55;8.52;;;6.07;;
61960;SDS011;47923;42.506;24.192;2023-05-06T09:01:22;6.97;;;3.80;;
61960;SDS011;47923;42.506;24.192;2023-05-06T09:03:56;6.18;;;3.70;;
61960;SDS011;47923;42.506;24.192;2023-05-06T09:06:22;6.65;;;4.30;;
61960;SDS011;47923;42.506;24.192;2023-05-06T09:08:49;6.65;;;3.65;;
61960;SDS011;47923;42.506;24.192;2023-05-06T09:11:24;7.47;;;4.00;;
61960;SDS011;47923;42.506;24.192;2023-05-06T09:14:08;7.38;;;3.63;;
61960;SDS011;47923;42.506;24.192;2023-05-06T09:16:41;6.68;;;3.92;;
61960;SDS011;47923;42.506;24.192;2023-05-06T09:19:08;7.72;;;4.07;;
61960;SDS011;47923;42.506;24.192;2023-05-06T09:21:35;9.52;;;4.82;;
61960;SDS011;47923;42.506;24.192;2023-05-06T09:24:03;7.95;;;5.80;;
61960;SDS011;47923;42.506;24.192;2023-05-06T09:26:30;8.07;;;3.92;;
61960;SDS011;47923;42.506;24.192;2023-05-06T09:28:57;9.52;;;4.85;;
61960;SDS011;47923;42.506;24.192;2023-05-06T09:31:23;9.52;;;5.95;;
61960;SDS011;47923;42.506;24.192;2023-05-06T09:33:50;8.48;;;5.05;;
61960;SDS011;47923;42.506;24.192;2023-05-06T09:36:16;8.98;;;4.80;;
61960;SDS011;47923;42.506;24.192;2023-05-06T09:38:42;11.98;;;4.22;;
61960;SDS011;47923;42.506;24.192;2023-05-06T09:41:07;7.38;;;3.83;;
61960;SDS011;47923;42.506;24.192;2023-05-06T09:43:36;10.10;;;5.53;;
61960;SDS011;47923;42.506;24.192;2023-05-06T09:46:05;8.52;;;4.97;;
61960;SDS011;47923;42.506;24.192;2023-05-06T09:48:32;6.53;;;3.65;;
61960;SDS011;47923;42.506;24.192;2023-05-06T09:50:59;8.95;;;5.28;;
61960;SDS011;47923;42.506;24.192;2023-05-06T09:53:26;10.57;;;4.90;;
61960;SDS011;47923;42.506;24.192;2023-05-06T09:55:52;8.15;;;4.70;;
61960;SDS011;47923;42.506;24.192;2023-05-06T09:58:20;7.05;;;3.65;;
61960;SDS011;47923;42.506;24.192;2023-05-06T10:00:45;8.38;;;4.57;;
61960;SDS011;47923;42.506;24.192;2023-05-06T10:03:14;8.35;;;4.28;;
61960;SDS011;47923;42.506;24.192;2023-05-06T10:05:40;6.18;;;2.90;;
61960;SDS011;47923;42.506;24.192;2023-05-06T10:08:07;7.45;;;3.67;;
61960;SDS011;47923;42.506;24.192;2023-05-06T10:10:33;5.47;;;3.75;;
61960;SDS011;47923;42.506;24.192;2023-05-06T10:13:02;9.07;;;3.90;;
61960;SDS011;47923;42.506;24.192;2023-05-06T10:15:31;6.63;;;3.58;;
61960;SDS011;47923;42.506;24.192;2023-05-06T10:17:57;5.90;;;3.13;;
61960;SDS011;47923;42.506;24.192;2023-05-06T10:20:24;7.20;;;2.78;;
61960;SDS011;47923;42.506;24.192;2023-05-06T10:23:02;9.10;;;3.90;;
61960;SDS011;47923;42.506;24.192;2023-05-06T10:25:39;5.18;;;3.03;;
61960;SDS011;47923;42.506;24.192;2023-05-06T10:28:10;6.68;;;3.05;;
61960;SDS011;47923;42.506;24.192;2023-05-06T10:30:37;8.98;;;3.53;;
61960;SDS011;47923;42.506;24.192;2023-05-06T10:33:04;8.38;;;4.22;;
61960;SDS011;47923;42.506;24.192;2023-05-06T10:38:20;7.18;;;3.95;;
61960;SDS011;47923;42.506;24.192;2023-05-06T10:40:51;11.75;;;6.75;;
61960;SDS011;47923;42.506;24.192;2023-05-06T10:43:29;10.77;;;5.82;;
61960;SDS011;47923;42.506;24.192;2023-05-06T10:46:07;7.50;;;3.83;;
61960;SDS011;47923;42.506;24.192;2023-05-06T10:48:34;7.85;;;4.35;;
61960;SDS011;47923;42.506;24.192;2023-05-06T10:51:20;9.20;;;4.45;;
61960;SDS011;47923;42.506;24.192;2023-05-06T10:53:54;9.75;;;3.75;;
61960;SDS011;47923;42.506;24.192;2023-05-06T10:56:27;7.82;;;4.00;;
61960;SDS011;47923;42.506;24.192;2023-05-06T10:59:07;11.68;;;5.40;;
61960;SDS011;47923;42.506;24.192;2023-05-06T11:01:37;9.32;;;5.57;;
61960;SDS011;47923;42.506;24.192;2023-05-06T11:04:06;14.85;;;4.57;;
61960;SDS011;47923;42.506;24.192;2023-05-06T11:09:21;6.53;;;3.88;;
61960;SDS011;47923;42.506;24.192;2023-05-06T11:14:27;8.90;;;4.50;;
61960;SDS011;47923;42.506;24.192;2023-05-06T11:16:53;10.10;;;5.55;;
61960;SDS011;47923;42.506;24.192;2023-05-06T11:19:26;9.23;;;4.47;;
61960;SDS011;47923;42.506;24.192;2023-05-06T11:21:54;8.45;;;3.50;;
61960;SDS011;47923;42.506;24.192;2023-05-06T11:24:25;10.70;;;6.20;;
61960;SDS011;47923;42.506;24.192;2023-05-06T11:26:56;5.35;;;2.45;;
61960;SDS011;47923;42.506;24.192;2023-05-06T11:29:23;6.55;;;3.35;;
61960;SDS011;47923;42.506;24.192;2023-05-06T11:31:50;7.45;;;3.42;;
61960;SDS011;47923;42.506;24.192;2023-05-06T11:34:28;6.00;;;2.67;;
61960;SDS011;47923;42.506;24.192;2023-05-06T11:36:57;7.25;;;2.90;;
61960;SDS011;47923;42.506;24.192;2023-05-06T11:39:26;6.82;;;3.25;;
61960;SDS011;47923;42.506;24.192;2023-05-06T11:42:00;6.20;;;2.80;;
61960;SDS011;47923;42.506;24.192;2023-05-06T11:44:34;5.68;;;3.00;;
61960;SDS011;47923;42.506;24.192;2023-05-06T11:47:05;7.40;;;3.30;;
61960;SDS011;47923;42.506;24.192;2023-05-06T11:49:41;6.28;;;2.60;;
61960;SDS011;47923;42.506;24.192;2023-05-06T11:52:07;5.78;;;2.60;;
61960;SDS011;47923;42.506;24.192;2023-05-06T11:54:35;7.20;;;3.17;;
61960;SDS011;47923;42.506;24.192;2023-05-06T11:57:03;6.18;;;3.30;;
61960;SDS011;47923;42.506;24.192;2023-05-06T11:59:29;5.95;;;2.92;;
61960;SDS011;47923;42.506;24.192;2023-05-06T12:02:00;5.70;;;3.08;;
61960;SDS011;47923;42.506;24.192;2023-05-06T12:04:28;7.35;;;3.50;;
61960;SDS011;47923;42.506;24.192;2023-05-06T12:07:01;7.18;;;3.42;;
61960;SDS011;47923;42.506;24.192;2023-05-06T12:09:30;6.55;;;2.83;;
61960;SDS011;47923;42.506;24.192;2023-05-06T12:11:56;8.75;;;3.75;;
61960;SDS011;47923;42.506;24.192;2023-05-06T12:14:22;7.78;;;3.40;;
61960;SDS011;47923;42.506;24.192;2023-05-06T12:16:48;7.50;;;3.00;;
61960;SDS011;47923;42.506;24.192;2023-05-06T12:19:14;5.35;;;2.83;;
61960;SDS011;47923;42.506;24.192;2023-05-06T12:21:41;6.90;;;2.72;;
61960;SDS011;47923;42.506;24.192;2023-05-06T12:24:07;6.00;;;2.63;;
61960;SDS011;47923;42.506;24.192;2023-05-06T12:26:43;6.05;;;2.65;;
61960;SDS011;47923;42.506;24.192;2023-05-06T12:29:13;3.50;;;2.35;;
61960;SDS011;47923;42.506;24.192;2023-05-06T12:31:42;8.18;;;2.88;;
61960;SDS011;47923;42.506;24.192;2023-05-06T12:34:11;8.10;;;3.75;;
61960;SDS011;47923;42.506;24.192;2023-05-06T12:36:39;7.28;;;3.40;;
61960;SDS011;47923;42.506;24.192;2023-05-06T12:39:05;8.52;;;2.75;;
61960;SDS011;47923;42.506;24.192;2023-05-06T12:41:38;8.15;;;3.50;;
61960;SDS011;47923;42.506;24.192;2023-05-06T12:46:59;5.00;;;2.75;;
61960;SDS011;47923;42.506;24.192;2023-05-06T12:49:25;4.90;;;2.92;;
61960;SDS011;47923;42.506;24.192;2023-05-06T12:52:07;5.68;;;2.95;;
61960;SDS011;47923;42.506;24.192;2023-05-06T12:54:34;6.75;;;3.33;;
61960;SDS011;47923;42.506;24.192;2023-05-06T12:57:00;6.50;;;2.92;;
61960;SDS011;47923;42.506;24.192;2023-05-06T12:59:26;4.47;;;2.42;;
61960;SDS011;47923;42.506;24.192;2023-05-06T13:01:51;6.55;;;2.55;;
61960;SDS011;47923;42.506;24.192;2023-05-06T13:04:17;4.78;;;2.08;;
61960;SDS011;47923;42.506;24.192;2023-05-06T13:06:42;5.93;;;2.85;;
61960;SDS011;47923;42.506;24.192;2023-05-06T13:09:08;6.68;;;2.60;;
61960;SDS011;47923;42.506;24.192;2023-05-06T13:11:34;5.18;;;2.50;;
61960;SDS011;47923;42.506;24.192;2023-05-06T13:13:59;6.78;;;3.05;;
61960;SDS011;47923;42.506;24.192;2023-05-06T13:16:27;6.35;;;2.90;;
61960;SDS011;47923;42.506;24.192;2023-05-06T13:18:53;7.78;;;2.55;;
61960;SDS011;47923;42.506;24.192;2023-05-06T13:21:19;8.18;;;2.72;;
61960;SDS011;47923;42.506;24.192;2023-05-06T13:23:45;8.50;;;2.90;;
61960;SDS011;47923;42.506;24.192;2023-05-06T13:26:12;5.53;;;2.55;;
61960;SDS011;47923;42.506;24.192;2023-05-06T13:28:38;7.65;;;2.90;;
61960;SDS011;47923;42.506;24.192;2023-05-06T13:31:05;6.45;;;2.70;;
61960;SDS011;47923;42.506;24.192;2023-05-06T13:33:32;7.45;;;3.40;;
61960;SDS011;47923;42.506;24.192;2023-05-06T13:35:58;5.90;;;2.35;;
61960;SDS011;47923;42.506;24.192;2023-05-06T13:38:24;6.45;;;2.90;;
61960;SDS011;47923;42.506;24.192;2023-05-06T13:40:50;5.43;;;2.63;;
61960;SDS011;47923;42.506;24.192;2023-05-06T13:43:17;7.20;;;3.47;;
61960;SDS011;47923;42.506;24.192;2023-05-06T13:45:43;5.03;;;2.67;;
61960;SDS011;47923;42.506;24.192;2023-05-06T13:48:09;6.57;;;3.47;;
61960;SDS011;47923;42.506;24.192;2023-05-06T13:50:35;5.20;;;2.63;;
61960;SDS011;47923;42.506;24.192;2023-05-06T13:53:01;3.88;;;1.98;;
61960;SDS011;47923;42.506;24.192;2023-05-06T13:55:30;3.65;;;2.05;;
61960;SDS011;47923;42.506;24.192;2023-05-06T13:57:55;6.55;;;2.60;;
61960;SDS011;47923;42.506;24.192;2023-05-06T14:00:21;4.57;;;2.40;;
61960;SDS011;47923;42.506;24.192;2023-05-06T14:02:46;5.43;;;2.35;;
61960;SDS011;47923;42.506;24.192;2023-05-06T14:05:11;7.50;;;2.72;;
61960;SDS011;47923;42.506;24.192;2023-05-06T14:07:39;5.55;;;2.58;;
61960;SDS011;47923;42.506;24.192;2023-05-06T14:10:05;4.93;;;2.45;;
61960;SDS011;47923;42.506;24.192;2023-05-06T14:12:31;10.85;;;3.72;;
61960;SDS011;47923;42.506;24.192;2023-05-06T14:14:57;7.43;;;3.10;;
61960;SDS011;47923;42.506;24.192;2023-05-06T14:17:22;7.60;;;3.83;;
61960;SDS011;47923;42.506;24.192;2023-05-06T14:19:48;6.60;;;3.15;;
61960;SDS011;47923;42.506;24.192;2023-05-06T14:22:13;5.40;;;2.58;;
61960;SDS011;47923;42.506;24.192;2023-05-06T14:24:38;5.10;;;2.67;;
61960;SDS011;47923;42.506;24.192;2023-05-06T14:27:04;10.38;;;3.95;;
61960;SDS011;47923;42.506;24.192;2023-05-06T14:29:29;8.48;;;4.45;;
61960;SDS011;47923;42.506;24.192;2023-05-06T14:31:55;6.10;;;3.15;;
61960;SDS011;47923;42.506;24.192;2023-05-06T14:34:20;5.53;;;3.00;;
61960;SDS011;47923;42.506;24.192;2023-05-06T14:36:46;5.53;;;2.53;;
61960;SDS011;47923;42.506;24.192;2023-05-06T14:39:11;4.07;;;2.47;;
61960;SDS011;47923;42.506;24.192;2023-05-06T14:41:38;5.40;;;2.60;;
61960;SDS011;47923;42.506;24.192;2023-05-06T14:44:03;5.00;;;2.83;;
61960;SDS011;47923;42.506;24.192;2023-05-06T14:46:29;6.30;;;3.00;;
61960;SDS011;47923;42.506;24.192;2023-05-06T14:48:55;6.22;;;3.05;;
61960;SDS011;47923;42.506;24.192;2023-05-06T14:51:20;5.25;;;2.55;;